Time;durP1;ratioP1;P1;durP2;ratioP2;P2;SDS_P1;SDS_P2;PMS_P1;PMS_P2;Temp;Humidity;BMP_temperature;BMP_pressure;BME280_temperature;BME280_humidity;BME280_pressure;Samples;Min_cycle;Max_cycle;Signal;HPM_P1;HPM_P2
2021/12/19 00:08:27;;;;;;;15.23;7.73;;;;;;;;;;4431393;32;20319;-58
2021/12/19 00:10:11;;;;;;;9.03;6.63;;;;;;;;;;4449977;32;20218;-57
2021/12/19 00:12:37;;;;;;;9.27;6.07;;;;;;;;;;4449734;32;20358;-56
2021/12/19 00:15:03;;;;;;;15.03;7.07;;;;;;;;;;4450318;32;20283;-58
2021/12/19 00:17:29;;;;;;;10.93;7.13;;;;;;;;;;4453883;32;20223;-56
2021/12/19 00:19:54;;;;;;;17.43;7.50;;;;;;;;;;4465482;32;20358;-56
2021/12/19 00:22:19;;;;;;;9.83;5.83;;;;;;;;;;4465391;32;20299;-57
2021/12/19 00:24:45;;;;;;;14.17;6.47;;;;;;;;;;4465522;32;20249;-56
2021/12/19 00:27:10;;;;;;;11.90;8.20;;;;;;;;;;4464509;32;20291;-57
2021/12/19 00:29:36;;;;;;;15.50;8.77;;;;;;;;;;4465684;32;20258;-56
2021/12/19 00:32:01;;;;;;;10.37;7.07;;;;;;;;;;4465109;32;20547;-57
2021/12/19 00:34:27;;;;;;;12.30;6.77;;;;;;;;;;4460048;32;20350;-56
2021/12/19 00:36:53;;;;;;;11.60;7.30;;;;;;;;;;4455525;32;20704;-56
2021/12/19 00:39:18;;;;;;;10.57;6.03;;;;;;;;;;4460602;32;20322;-56
2021/12/19 00:41:43;;;;;;;9.90;6.10;;;;;;;;;;4448247;32;20419;-55
2021/12/19 00:44:11;;;;;;;10.07;5.60;;;;;;;;;;4446727;32;20266;-56
2021/12/19 00:46:48;;;;;;;7.07;5.37;;;;;;;;;;4450953;32;20653;-56
2021/12/19 00:49:14;;;;;;;7.63;5.47;;;;;;;;;;4450192;32;20317;-56
2021/12/19 00:51:40;;;;;;;8.60;5.13;;;;;;;;;;4448366;32;20300;-56
2021/12/19 00:54:09;;;;;;;8.13;5.10;;;;;;;;;;4453724;32;20644;-55
2021/12/19 00:56:38;;;;;;;12.50;6.70;;;;;;;;;;4452492;32;20216;-57
2021/12/19 00:59:04;;;;;;;8.27;5.97;;;;;;;;;;4457345;32;20260;-56
2021/12/19 01:01:30;;;;;;;10.80;6.17;;;;;;;;;;4451864;32;20220;-55
2021/12/19 01:03:56;;;;;;;13.13;6.17;;;;;;;;;;4461315;32;20489;-56
2021/12/19 01:06:21;;;;;;;18.10;9.53;;;;;;;;;;4461433;32;20324;-56
2021/12/19 01:08:48;;;;;;;19.83;9.07;;;;;;;;;;4456434;32;20323;-56
2021/12/19 01:11:14;;;;;;;19.83;10.67;;;;;;;;;;4455746;32;20254;-55
2021/12/19 01:13:39;;;;;;;28.33;13.00;;;;;;;;;;4459255;32;20265;-56
2021/12/19 01:16:05;;;;;;;20.87;11.33;;;;;;;;;;4463487;32;20307;-56
2021/12/19 01:18:31;;;;;;;26.87;12.40;;;;;;;;;;4460934;32;20225;-56
2021/12/19 01:20:57;;;;;;;18.27;11.00;;;;;;;;;;4464298;32;20220;-56
2021/12/19 01:23:23;;;;;;;16.93;10.70;;;;;;;;;;4463822;32;20290;-55
2021/12/19 01:25:50;;;;;;;15.00;8.30;;;;;;;;;;4451839;32;20606;-55
2021/12/19 01:28:15;;;;;;;15.07;9.50;;;;;;;;;;4456958;32;20219;-56
2021/12/19 01:30:41;;;;;;;24.03;10.17;;;;;;;;;;4459530;32;20363;-56
2021/12/19 01:33:07;;;;;;;23.40;11.97;;;;;;;;;;4454916;32;20623;-55
2021/12/19 01:35:33;;;;;;;23.20;13.53;;;;;;;;;;4452535;32;20335;-55
2021/12/19 01:37:59;;;;;;;29.83;16.83;;;;;;;;;;4461207;32;20216;-55
2021/12/19 01:40:25;;;;;;;29.10;16.03;;;;;;;;;;4450471;32;20287;-56
2021/12/19 01:42:54;;;;;;;32.77;15.97;;;;;;;;;;4458235;32;20320;-55
2021/12/19 01:45:36;;;;;;;26.27;13.67;;;;;;;;;;4456917;32;20271;-55
2021/12/19 01:48:09;;;;;;;19.63;10.70;;;;;;;;;;4460653;32;20244;-56
2021/12/19 01:50:35;;;;;;;18.33;11.17;;;;;;;;;;4452015;32;20299;-56
2021/12/19 01:53:03;;;;;;;17.57;9.70;;;;;;;;;;4460686;32;20223;-55
2021/12/19 01:55:29;;;;;;;19.43;9.10;;;;;;;;;;4452948;32;20228;-55
2021/12/19 01:57:54;;;;;;;19.33;9.70;;;;;;;;;;4457017;32;20235;-56
2021/12/19 02:00:27;;;;;;;18.83;9.87;;;;;;;;;;4461605;32;20279;-57
2021/12/19 02:02:54;;;;;;;20.20;9.93;;;;;;;;;;4448489;32;20237;-56
2021/12/19 02:05:19;;;;;;;26.23;13.40;;;;;;;;;;4456991;32;20544;-56
2021/12/19 02:07:48;;;;;;;25.27;12.40;;;;;;;;;;4463124;32;20203;-55
2021/12/19 02:10:18;;;;;;;21.97;12.63;;;;;;;;;;4452612;32;20200;-54
2021/12/19 02:12:46;;;;;;;18.93;10.67;;;;;;;;;;4462616;32;20265;-55
2021/12/19 02:15:17;;;;;;;18.37;9.80;;;;;;;;;;4456796;32;20276;-55
2021/12/19 02:17:42;;;;;;;21.73;12.97;;;;;;;;;;4458918;32;20236;-55
2021/12/19 02:20:17;;;;;;;19.20;9.40;;;;;;;;;;4450862;32;20298;-55
2021/12/19 02:22:43;;;;;;;16.97;8.47;;;;;;;;;;4462141;32;20426;-55
2021/12/19 02:25:09;;;;;;;12.83;7.93;;;;;;;;;;4463709;32;20623;-55
2021/12/19 02:27:35;;;;;;;10.23;6.83;;;;;;;;;;4453421;32;20209;-54
2021/12/19 02:30:03;;;;;;;6.93;5.77;;;;;;;;;;4462458;32;20208;-55
2021/12/19 02:32:30;;;;;;;12.50;6.10;;;;;;;;;;4458431;32;20243;-55
2021/12/19 02:34:58;;;;;;;14.27;7.63;;;;;;;;;;4454171;32;20250;-54
2021/12/19 02:50:33;;;;;;;12.83;8.60;;;;;;;;;;4463375;32;20276;-55
2021/12/19 02:52:59;;;;;;;11.77;8.37;;;;;;;;;;4463410;32;20228;-55
2021/12/19 02:55:25;;;;;;;11.70;7.43;;;;;;;;;;4463571;32;20293;-56
2021/12/19 02:57:50;;;;;;;12.10;7.40;;;;;;;;;;4464949;32;20691;-55
2021/12/19 03:00:25;;;;;;;12.50;7.83;;;;;;;;;;4466816;32;20339;-57
2021/12/19 03:02:52;;;;;;;14.10;7.33;;;;;;;;;;4466854;32;20346;-55
2021/12/19 03:05:18;;;;;;;14.50;8.17;;;;;;;;;;4465891;32;20287;-54
2021/12/19 03:07:44;;;;;;;51.33;26.83;;;;;;;;;;4464857;32;20232;-55
2021/12/19 03:18:16;;;;;;;19.20;12.50;;;;;;;;;;4459788;32;20247;-56
2021/12/19 03:20:42;;;;;;;17.00;9.90;;;;;;;;;;4456689;32;20322;-56
2021/12/19 03:23:11;;;;;;;20.00;10.77;;;;;;;;;;4457258;32;20344;-56
2021/12/19 03:25:36;;;;;;;35.17;14.30;;;;;;;;;;4453737;32;20259;-55
2021/12/19 03:28:05;;;;;;;30.63;14.17;;;;;;;;;;4458096;32;20225;-55
2021/12/19 03:30:32;;;;;;;29.20;14.23;;;;;;;;;;4456078;32;20220;-55
2021/12/19 03:32:58;;;;;;;33.83;14.80;;;;;;;;;;4456981;32;20232;-55
2021/12/19 03:35:24;;;;;;;29.13;13.57;;;;;;;;;;4456992;32;20287;-57
2021/12/19 03:37:52;;;;;;;26.63;14.00;;;;;;;;;;4454211;32;20216;-55
2021/12/19 03:40:35;;;;;;;28.70;12.77;;;;;;;;;;4457717;32;20288;-56
2021/12/19 03:43:03;;;;;;;24.90;12.13;;;;;;;;;;4456713;32;20299;-56
2021/12/19 03:45:29;;;;;;;31.20;15.13;;;;;;;;;;4455539;32;20534;-55
2021/12/19 03:47:55;;;;;;;36.87;18.50;;;;;;;;;;4457880;32;20663;-55
2021/12/19 03:50:23;;;;;;;30.53;17.40;;;;;;;;;;4458496;32;20401;-58
2021/12/19 03:52:53;;;;;;;37.03;18.70;;;;;;;;;;4450267;32;20275;-55
2021/12/19 03:55:21;;;;;;;62.20;28.00;;;;;;;;;;4450129;32;20247;-56
2021/12/19 03:57:47;;;;;;;53.40;23.53;;;;;;;;;;4455329;32;20463;-56
2021/12/19 04:00:15;;;;;;;65.07;27.57;;;;;;;;;;4459885;32;20259;-56
2021/12/19 04:02:41;;;;;;;54.40;24.27;;;;;;;;;;4461333;32;20602;-56
2021/12/19 04:05:07;;;;;;;40.60;18.33;;;;;;;;;;4464531;32;20299;-55
2021/12/19 04:07:33;;;;;;;36.57;17.60;;;;;;;;;;4454378;32;20444;-55
2021/12/19 04:09:59;;;;;;;43.40;19.77;;;;;;;;;;4460544;32;20301;-56
2021/12/19 04:12:27;;;;;;;35.90;16.97;;;;;;;;;;4457958;32;20211;-55
2021/12/19 04:14:53;;;;;;;29.23;15.23;;;;;;;;;;4456098;32;20571;-55
2021/12/19 04:17:19;;;;;;;24.10;13.40;;;;;;;;;;4452815;32;20226;-55
2021/12/19 04:19:44;;;;;;;30.43;15.03;;;;;;;;;;4463682;32;20228;-55
2021/12/19 04:22:10;;;;;;;33.03;17.47;;;;;;;;;;4455118;32;20249;-56
2021/12/19 04:24:35;;;;;;;36.13;18.70;;;;;;;;;;4449776;32;20264;-55
2021/12/19 04:27:01;;;;;;;26.97;15.30;;;;;;;;;;4458593;32;20343;-55
2021/12/19 04:29:26;;;;;;;28.43;15.27;;;;;;;;;;4463219;32;20337;-55
2021/12/19 04:31:53;;;;;;;42.13;17.97;;;;;;;;;;4462604;32;20227;-56
2021/12/19 04:34:19;;;;;;;30.27;17.70;;;;;;;;;;4452741;32;20553;-56
2021/12/19 04:36:53;;;;;;;38.33;18.93;;;;;;;;;;4457380;32;20221;-55
2021/12/19 04:39:26;;;;;;;35.00;16.43;;;;;;;;;;4454840;32;20617;-55
2021/12/19 05:00:15;;;;;;;24.70;12.03;;;;;;;;;;4463450;32;20317;-55
2021/12/19 05:16:04;;;;;;;27.97;16.37;;;;;;;;;;4464236;32;20643;-54
2021/12/19 05:18:33;;;;;;;24.47;14.47;;;;;;;;;;4463178;32;20228;-55
2021/12/19 05:21:04;;;;;;;29.97;14.70;;;;;;;;;;4462298;32;20216;-55
2021/12/19 05:25:55;;;;;;;23.00;12.10;;;;;;;;;;4463015;32;20726;-55
2021/12/19 05:28:20;;;;;;;17.80;11.40;;;;;;;;;;4456432;32;20255;-54
2021/12/19 05:30:46;;;;;;;22.27;10.63;;;;;;;;;;4448802;32;20354;-55
2021/12/19 05:33:11;;;;;;;18.73;11.20;;;;;;;;;;4449840;32;20309;-56
2021/12/19 05:46:24;;;;;;;26.73;13.53;;;;;;;;;;4447850;32;20245;-54
2021/12/19 05:48:49;;;;;;;28.07;12.53;;;;;;;;;;4447912;32;20241;-55
2021/12/19 05:51:15;;;;;;;28.03;16.17;;;;;;;;;;4455782;32;20250;-56
2021/12/19 05:53:40;;;;;;;31.17;17.40;;;;;;;;;;4447223;32;20266;-55
2021/12/19 05:56:06;;;;;;;25.57;13.70;;;;;;;;;;4457422;32;20299;-55
2021/12/19 05:58:31;;;;;;;24.83;13.97;;;;;;;;;;4462123;32;20344;-55
2021/12/19 06:00:57;;;;;;;31.50;15.90;;;;;;;;;;4463062;32;20287;-55
2021/12/19 06:03:22;;;;;;;30.23;14.13;;;;;;;;;;4460688;32;20277;-55
2021/12/19 06:05:48;;;;;;;36.93;15.50;;;;;;;;;;4449542;32;20237;-54
2021/12/19 06:08:13;;;;;;;36.23;18.10;;;;;;;;;;4447422;32;20227;-55
2021/12/19 06:10:39;;;;;;;33.77;19.17;;;;;;;;;;4448255;32;20256;-54
2021/12/19 06:13:04;;;;;;;39.20;21.53;;;;;;;;;;4452729;32;20254;-55
2021/12/19 06:15:30;;;;;;;35.17;18.73;;;;;;;;;;4460801;32;20362;-55
2021/12/19 06:17:55;;;;;;;29.97;17.90;;;;;;;;;;4459503;32;20686;-55
2021/12/19 06:20:21;;;;;;;24.40;13.50;;;;;;;;;;4450619;32;20299;-55
2021/12/19 06:22:47;;;;;;;22.43;12.97;;;;;;;;;;4457066;32;20216;-54
2021/12/19 06:25:13;;;;;;;41.87;19.90;;;;;;;;;;4463665;32;20288;-55
2021/12/19 06:27:38;;;;;;;33.13;18.20;;;;;;;;;;4461078;32;20220;-55
2021/12/19 06:30:06;;;;;;;33.77;18.60;;;;;;;;;;4462978;32;20291;-55
2021/12/19 06:32:32;;;;;;;35.50;19.17;;;;;;;;;;4461440;32;20507;-55
2021/12/19 06:34:59;;;;;;;30.90;16.80;;;;;;;;;;4455347;32;20699;-54
2021/12/19 06:37:25;;;;;;;37.50;21.00;;;;;;;;;;4458204;32;20361;-54
2021/12/19 06:39:50;;;;;;;31.13;17.50;;;;;;;;;;4459698;32;20224;-54
2021/12/19 06:42:16;;;;;;;41.23;22.33;;;;;;;;;;4463168;32;20212;-54
2021/12/19 06:44:41;;;;;;;42.73;24.37;;;;;;;;;;4461291;32;20311;-55
2021/12/19 06:47:07;;;;;;;58.40;25.93;;;;;;;;;;4451407;32;20271;-55
2021/12/19 06:49:33;;;;;;;50.07;28.60;;;;;;;;;;4454331;32;20286;-56
2021/12/19 06:51:58;;;;;;;84.60;40.60;;;;;;;;;;4452496;32;20254;-55
2021/12/19 06:54:24;;;;;;;123.73;59.17;;;;;;;;;;4462719;32;20288;-55
2021/12/19 06:56:49;;;;;;;116.80;58.37;;;;;;;;;;4462314;32;20211;-54
2021/12/19 06:59:15;;;;;;;134.83;67.93;;;;;;;;;;4455926;32;20215;-55
2021/12/19 07:01:41;;;;;;;153.07;71.83;;;;;;;;;;4453476;32;20300;-54
2021/12/19 07:04:06;;;;;;;100.70;55.13;;;;;;;;;;4454002;32;20252;-54
2021/12/19 07:06:32;;;;;;;102.97;51.60;;;;;;;;;;4450975;32;20297;-56
2021/12/19 07:08:58;;;;;;;67.97;31.07;;;;;;;;;;4453705;32;20621;-55
2021/12/19 07:11:23;;;;;;;54.43;28.90;;;;;;;;;;4452468;32;20366;-55
2021/12/19 07:13:49;;;;;;;54.77;28.77;;;;;;;;;;4455356;32;20301;-54
2021/12/19 07:16:15;;;;;;;49.33;28.90;;;;;;;;;;4455009;32;20319;-55
2021/12/19 07:18:42;;;;;;;52.30;28.83;;;;;;;;;;4456076;32;20337;-55
2021/12/19 07:21:08;;;;;;;52.50;28.33;;;;;;;;;;4454796;32;20362;-55
2021/12/19 07:23:34;;;;;;;83.80;40.07;;;;;;;;;;4455270;32;20695;-55
2021/12/19 07:26:00;;;;;;;124.10;56.47;;;;;;;;;;4455336;32;20205;-54
2021/12/19 07:28:26;;;;;;;70.53;36.33;;;;;;;;;;4457866;32;20254;-55
2021/12/19 07:30:52;;;;;;;95.43;47.73;;;;;;;;;;4448054;32;20279;-56
2021/12/19 07:33:18;;;;;;;69.63;31.53;;;;;;;;;;4461186;32;20284;-55
2021/12/19 07:35:47;;;;;;;47.80;24.50;;;;;;;;;;4456888;32;20364;-55
2021/12/19 07:38:21;;;;;;;56.93;29.67;;;;;;;;;;4446169;32;20237;-56
2021/12/19 07:40:50;;;;;;;72.20;34.90;;;;;;;;;;4458591;32;20247;-55
2021/12/19 07:43:16;;;;;;;63.10;27.83;;;;;;;;;;4465005;32;20240;-55
2021/12/19 07:45:42;;;;;;;85.47;36.03;;;;;;;;;;4463769;32;20328;-55
2021/12/19 07:48:08;;;;;;;69.07;30.27;;;;;;;;;;4460675;32;20299;-55
2021/12/19 07:50:34;;;;;;;59.30;26.80;;;;;;;;;;4454556;32;20631;-56
2021/12/19 07:53:01;;;;;;;62.73;28.53;;;;;;;;;;4455466;32;20225;-55
2021/12/19 07:55:27;;;;;;;62.30;28.47;;;;;;;;;;4450693;32;20204;-55
2021/12/19 07:57:52;;;;;;;40.10;23.20;;;;;;;;;;4466129;32;20811;-56
2021/12/19 08:00:20;;;;;;;38.87;19.87;;;;;;;;;;4465022;32;20236;-55
2021/12/19 08:02:47;;;;;;;37.60;19.00;;;;;;;;;;4462836;32;20804;-56
2021/12/19 08:05:14;;;;;;;35.37;19.03;;;;;;;;;;4455857;32;20268;-55
2021/12/19 08:07:41;;;;;;;32.40;17.63;;;;;;;;;;4462141;32;20681;-56
2021/12/19 08:12:34;;;;;;;25.77;13.90;;;;;;;;;;4451431;32;20204;-55
2021/12/19 08:15:00;;;;;;;28.63;16.80;;;;;;;;;;4465478;32;20306;-55
2021/12/19 08:17:26;;;;;;;32.97;17.23;;;;;;;;;;4456169;32;20208;-55
2021/12/19 08:19:51;;;;;;;33.90;17.97;;;;;;;;;;4451644;32;20264;-56
2021/12/19 08:22:17;;;;;;;29.57;17.33;;;;;;;;;;4458374;32;20353;-54
2021/12/19 08:24:45;;;;;;;55.43;25.33;;;;;;;;;;4464437;32;20254;-55
2021/12/19 08:27:11;;;;;;;60.23;33.07;;;;;;;;;;4463917;32;20211;-54
2021/12/19 08:29:36;;;;;;;61.23;30.20;;;;;;;;;;4464185;32;20270;-54
2021/12/19 08:32:03;;;;;;;54.27;29.50;;;;;;;;;;4463697;32;20254;-55
2021/12/19 08:34:28;;;;;;;51.33;26.80;;;;;;;;;;4462348;32;20284;-56
2021/12/19 08:36:55;;;;;;;56.33;28.80;;;;;;;;;;4457151;32;20261;-55
2021/12/19 08:39:20;;;;;;;51.87;22.40;;;;;;;;;;4464928;32;20724;-56
2021/12/19 08:41:46;;;;;;;46.43;24.47;;;;;;;;;;4459063;32;20237;-54
2021/12/19 08:44:11;;;;;;;49.77;27.13;;;;;;;;;;4448919;32;20382;-54
2021/12/19 08:46:38;;;;;;;46.67;23.83;;;;;;;;;;4449743;32;20216;-54
2021/12/19 08:49:04;;;;;;;58.80;29.33;;;;;;;;;;4450542;32;20260;-54
2021/12/19 08:51:32;;;;;;;45.73;22.73;;;;;;;;;;4452052;32;20684;-55
2021/12/19 08:54:00;;;;;;;48.90;24.70;;;;;;;;;;4450349;32;20286;-55
2021/12/19 08:56:26;;;;;;;52.83;26.17;;;;;;;;;;4449730;32;20239;-55
2021/12/19 08:58:51;;;;;;;59.57;25.40;;;;;;;;;;4457008;32;20262;-55
2021/12/19 09:01:17;;;;;;;46.87;25.67;;;;;;;;;;4451563;32;20815;-55
2021/12/19 09:03:43;;;;;;;38.97;21.33;;;;;;;;;;4447548;32;20319;-55
2021/12/19 09:06:08;;;;;;;48.90;25.57;;;;;;;;;;4453982;32;20271;-55
2021/12/19 09:08:34;;;;;;;71.33;31.13;;;;;;;;;;4464884;32;20235;-55
2021/12/19 09:10:59;;;;;;;61.30;31.17;;;;;;;;;;4460551;32;20652;-56
2021/12/19 09:13:25;;;;;;;63.47;31.60;;;;;;;;;;4455430;32;20224;-55
2021/12/19 09:15:51;;;;;;;86.43;42.30;;;;;;;;;;4456001;32;20239;-55
2021/12/19 09:18:18;;;;;;;97.40;48.83;;;;;;;;;;4459977;32;20638;-55
2021/12/19 09:20:44;;;;;;;85.43;37.00;;;;;;;;;;4464792;32;20628;-56
2021/12/19 09:23:11;;;;;;;65.83;32.70;;;;;;;;;;4451174;32;20371;-55
2021/12/19 09:25:38;;;;;;;43.03;19.83;;;;;;;;;;4449219;32;20640;-56
2021/12/19 09:28:04;;;;;;;39.83;18.40;;;;;;;;;;4450736;32;20217;-56
2021/12/19 09:30:29;;;;;;;33.47;18.90;;;;;;;;;;4454708;32;20338;-57
2021/12/19 09:32:55;;;;;;;38.17;21.87;;;;;;;;;;4452728;32;20229;-56
2021/12/19 09:35:21;;;;;;;30.10;17.47;;;;;;;;;;4458110;32;20280;-56
2021/12/19 09:37:46;;;;;;;30.00;15.77;;;;;;;;;;4461053;32;20287;-56
2021/12/19 09:40:18;;;;;;;55.33;27.30;;;;;;;;;;4448458;32;20327;-56
2021/12/19 09:42:47;;;;;;;36.13;20.83;;;;;;;;;;4449150;32;20212;-56
2021/12/19 09:45:12;;;;;;;27.30;17.37;;;;;;;;;;4447662;32;20220;-55
2021/12/19 09:47:38;;;;;;;28.93;15.57;;;;;;;;;;4450106;32;20618;-56
2021/12/19 09:50:05;;;;;;;28.63;16.37;;;;;;;;;;4452199;32;20287;-55
2021/12/19 09:52:31;;;;;;;33.40;18.87;;;;;;;;;;4449619;32;20248;-57
2021/12/19 09:54:57;;;;;;;45.93;25.27;;;;;;;;;;4460522;32;20287;-56
2021/12/19 09:57:24;;;;;;;47.20;21.57;;;;;;;;;;4463074;32;20586;-56
2021/12/19 09:59:49;;;;;;;43.70;23.70;;;;;;;;;;4463583;32;20254;-57
2021/12/19 10:02:16;;;;;;;45.67;22.90;;;;;;;;;;4464522;32;20221;-56
2021/12/19 10:04:43;;;;;;;42.73;23.67;;;;;;;;;;4457248;32;20672;-55
2021/12/19 10:07:18;;;;;;;57.73;24.43;;;;;;;;;;4463245;32;20239;-57
2021/12/19 10:10:10;;;;;;;61.27;28.73;;;;;;;;;;4463910;32;20638;-56
2021/12/19 10:12:48;;;;;;;106.97;66.27;;;;;;;;;;4452645;32;20217;-56
2021/12/19 10:15:41;;;;;;;77.37;29.13;;;;;;;;;;4448797;32;20650;-57
2021/12/19 10:18:16;;;;;;;31.83;15.73;;;;;;;;;;4450022;32;20283;-56
2021/12/19 10:20:44;;;;;;;23.33;13.10;;;;;;;;;;4462787;32;20345;-56
2021/12/19 10:23:12;;;;;;;24.30;12.83;;;;;;;;;;4456552;32;20228;-57
2021/12/19 10:25:37;;;;;;;22.80;10.10;;;;;;;;;;4461967;32;20294;-56
2021/12/19 10:28:09;;;;;;;31.97;18.40;;;;;;;;;;4463169;32;20557;-57
2021/12/19 10:30:46;;;;;;;174.67;84.03;;;;;;;;;;4455053;32;20886;-56
2021/12/19 10:33:14;;;;;;;37.20;18.63;;;;;;;;;;4460669;32;20675;-56
2021/12/19 10:35:54;;;;;;;286.70;91.00;;;;;;;;;;4458953;32;20209;-57
2021/12/19 10:38:25;;;;;;;42.90;19.63;;;;;;;;;;4447708;32;20319;-56
2021/12/19 10:40:56;;;;;;;30.27;15.43;;;;;;;;;;4460778;32;20212;-56
2021/12/19 10:43:26;;;;;;;38.03;18.23;;;;;;;;;;4462441;32;20262;-57
2021/12/19 10:45:55;;;;;;;41.87;23.57;;;;;;;;;;4461911;32;20192;-56
2021/12/19 10:48:22;;;;;;;26.40;12.23;;;;;;;;;;4449021;32;20322;-57
2021/12/19 10:50:50;;;;;;;26.80;16.07;;;;;;;;;;4459990;32;20278;-56
2021/12/19 10:53:17;;;;;;;34.30;16.70;;;;;;;;;;4455920;32;20251;-57
2021/12/19 10:55:48;;;;;;;44.80;23.23;;;;;;;;;;4462718;32;20347;-57
2021/12/19 10:58:30;;;;;;;43.20;21.57;;;;;;;;;;4459318;32;20231;-56
2021/12/19 11:01:10;;;;;;;47.63;23.73;;;;;;;;;;4456171;32;20692;-57
2021/12/19 11:03:44;;;;;;;43.87;27.03;;;;;;;;;;4442958;32;20244;-56
2021/12/19 11:06:52;;;;;;;48.20;25.77;;;;;;;;;;4449329;32;20639;-56
2021/12/19 11:09:24;;;;;;;64.37;30.07;;;;;;;;;;4456162;32;20766;-57
2021/12/19 11:12:02;;;;;;;79.37;38.63;;;;;;;;;;4451955;32;20624;-56
2021/12/19 11:14:34;;;;;;;50.93;28.13;;;;;;;;;;4446208;32;20497;-58
2021/12/19 11:17:02;;;;;;;58.60;29.27;;;;;;;;;;4458587;32;20626;-57
2021/12/19 11:19:28;;;;;;;51.53;25.03;;;;;;;;;;4460427;32;20306;-56
2021/12/19 11:21:54;;;;;;;48.80;25.17;;;;;;;;;;4448250;32;20196;-57
2021/12/19 11:24:21;;;;;;;62.40;29.43;;;;;;;;;;4460957;32;20689;-57
2021/12/19 11:26:50;;;;;;;51.17;21.87;;;;;;;;;;4462913;32;20625;-57
2021/12/19 11:29:17;;;;;;;68.13;29.70;;;;;;;;;;4464446;32;20286;-56
2021/12/19 11:31:47;;;;;;;106.87;42.07;;;;;;;;;;4459816;32;20277;-57
2021/12/19 11:34:30;;;;;;;117.07;46.87;;;;;;;;;;4464819;32;20259;-57
2021/12/19 11:37:12;;;;;;;56.47;25.20;;;;;;;;;;4462425;32;20208;-58
2021/12/19 11:39:41;;;;;;;48.27;22.37;;;;;;;;;;4457753;32;20731;-57
2021/12/19 11:42:10;;;;;;;21.47;13.73;;;;;;;;;;4458645;32;20321;-57
2021/12/19 11:44:46;;;;;;;25.80;13.90;;;;;;;;;;4457412;32;20236;-58
2021/12/19 11:47:16;;;;;;;32.70;17.03;;;;;;;;;;4459691;32;20370;-57
2021/12/19 11:49:41;;;;;;;27.07;16.83;;;;;;;;;;4451862;32;20258;-56
2021/12/19 11:52:27;;;;;;;112.20;56.93;;;;;;;;;;4456692;32;20223;-56
2021/12/19 11:55:14;;;;;;;38.23;18.70;;;;;;;;;;4456306;32;20263;-57
2021/12/19 11:57:44;;;;;;;33.47;19.13;;;;;;;;;;4454640;32;20242;-56
2021/12/19 12:00:28;;;;;;;47.87;26.67;;;;;;;;;;4454967;32;20220;-57
2021/12/19 12:03:11;;;;;;;36.30;21.33;;;;;;;;;;4456202;32;20335;-57
2021/12/19 12:05:46;;;;;;;39.57;22.70;;;;;;;;;;4459106;32;20307;-57
2021/12/19 12:08:22;;;;;;;81.53;44.43;;;;;;;;;;4463490;32;20262;-57
2021/12/19 12:10:51;;;;;;;51.97;26.67;;;;;;;;;;4457106;32;20460;-56
2021/12/19 12:13:22;;;;;;;32.77;21.67;;;;;;;;;;4462743;32;20281;-57
2021/12/19 12:15:51;;;;;;;102.17;52.87;;;;;;;;;;4461781;32;20742;-57
2021/12/19 12:18:42;;;;;;;34.67;21.37;;;;;;;;;;4457526;32;21062;-57
2021/12/19 12:21:25;;;;;;;35.10;19.93;;;;;;;;;;4462629;32;20391;-57
2021/12/19 12:24:03;;;;;;;34.33;20.83;;;;;;;;;;4464104;32;20251;-56
2021/12/19 12:26:48;;;;;;;35.40;23.13;;;;;;;;;;4459640;32;20291;-57
2021/12/19 12:29:14;;;;;;;39.27;24.63;;;;;;;;;;4446520;32;20719;-56
2021/12/19 12:31:43;;;;;;;37.23;23.73;;;;;;;;;;4449891;32;20212;-57
2021/12/19 12:34:11;;;;;;;46.87;25.23;;;;;;;;;;4451617;32;20743;-57
2021/12/19 12:36:37;;;;;;;44.80;26.53;;;;;;;;;;4448361;32;20284;-57
2021/12/19 12:39:08;;;;;;;42.30;19.60;;;;;;;;;;4451485;32;20229;-56
2021/12/19 12:41:52;;;;;;;36.60;21.10;;;;;;;;;;4454049;32;20254;-58
2021/12/19 12:44:22;;;;;;;50.47;26.07;;;;;;;;;;4449678;32;20308;-56
2021/12/19 12:46:48;;;;;;;58.43;31.10;;;;;;;;;;4449513;32;20192;-57
2021/12/19 12:49:17;;;;;;;64.13;31.10;;;;;;;;;;4454772;32;20674;-56
2021/12/19 12:51:47;;;;;;;66.87;35.20;;;;;;;;;;4455254;32;20324;-57
2021/12/19 12:54:20;;;;;;;66.97;33.07;;;;;;;;;;4452585;32;20289;-57
2021/12/19 12:56:49;;;;;;;71.43;36.50;;;;;;;;;;4447881;32;20200;-56
2021/12/19 12:59:23;;;;;;;61.23;34.53;;;;;;;;;;4450915;32;20297;-56
2021/12/19 13:01:52;;;;;;;67.47;33.77;;;;;;;;;;4461122;32;20215;-57
2021/12/19 13:04:18;;;;;;;80.63;40.07;;;;;;;;;;4455676;32;20244;-57
2021/12/19 13:06:50;;;;;;;71.53;38.27;;;;;;;;;;4455556;32;20326;-57
2021/12/19 13:09:19;;;;;;;80.97;40.17;;;;;;;;;;4460633;32;20296;-57
2021/12/19 13:11:48;;;;;;;82.67;44.87;;;;;;;;;;4460736;32;20274;-56
2021/12/19 13:14:13;;;;;;;61.97;31.33;;;;;;;;;;4464466;32;20310;-57
2021/12/19 13:16:43;;;;;;;62.13;33.90;;;;;;;;;;4452012;32;20419;-56
2021/12/19 13:19:08;;;;;;;46.13;22.70;;;;;;;;;;4449353;32;20371;-57
2021/12/19 13:21:54;;;;;;;68.20;34.13;;;;;;;;;;4456862;32;20562;-56
2021/12/19 13:24:22;;;;;;;77.33;36.70;;;;;;;;;;4453688;32;20247;-57
2021/12/19 13:26:47;;;;;;;42.50;22.07;;;;;;;;;;4450329;32;20265;-56
2021/12/19 13:29:18;;;;;;;29.93;14.50;;;;;;;;;;4450130;32;20239;-57
2021/12/19 13:31:43;;;;;;;47.20;21.27;;;;;;;;;;4446195;32;20667;-57
2021/12/19 13:34:13;;;;;;;76.20;30.23;;;;;;;;;;4447902;32;20239;-57
2021/12/19 13:36:39;;;;;;;120.87;52.37;;;;;;;;;;4462033;32;20551;-57
2021/12/19 13:39:16;;;;;;;42.90;21.20;;;;;;;;;;4453184;32;20492;-56
2021/12/19 13:41:42;;;;;;;46.00;20.63;;;;;;;;;;4446607;32;20306;-56
2021/12/19 13:44:08;;;;;;;36.77;16.43;;;;;;;;;;4449679;32;20420;-56
2021/12/19 13:46:34;;;;;;;34.10;18.73;;;;;;;;;;4453326;32;20243;-57
2021/12/19 13:48:59;;;;;;;35.13;20.77;;;;;;;;;;4459428;32;20228;-57
2021/12/19 13:51:30;;;;;;;26.87;16.13;;;;;;;;;;4457154;32;20290;-57
2021/12/19 13:54:00;;;;;;;37.97;19.90;;;;;;;;;;4460171;32;20657;-56
2021/12/19 13:56:25;;;;;;;53.23;25.00;;;;;;;;;;4448457;32;20273;-56
2021/12/19 13:58:57;;;;;;;89.53;36.77;;;;;;;;;;4460269;32;20609;-56
2021/12/19 14:01:24;;;;;;;27.90;16.20;;;;;;;;;;4462727;32;20224;-56
2021/12/19 14:03:59;;;;;;;82.33;36.53;;;;;;;;;;4460810;32;20255;-56
2021/12/19 14:06:36;;;;;;;69.10;25.47;;;;;;;;;;4455368;32;20525;-56
2021/12/19 14:09:07;;;;;;;40.60;19.77;;;;;;;;;;4454288;32;20559;-57
2021/12/19 14:11:35;;;;;;;96.67;41.50;;;;;;;;;;4447010;32;20212;-57
2021/12/19 14:14:08;;;;;;;170.17;73.37;;;;;;;;;;4461115;32;20250;-56
2021/12/19 14:16:35;;;;;;;86.30;41.93;;;;;;;;;;4461770;32;20232;-56
2021/12/19 14:19:01;;;;;;;117.17;60.20;;;;;;;;;;4462773;32;20338;-56
2021/12/19 14:21:38;;;;;;;93.80;42.10;;;;;;;;;;4462768;32;20298;-57
2021/12/19 14:24:16;;;;;;;74.83;37.80;;;;;;;;;;4461873;32;20323;-59
2021/12/19 14:26:45;;;;;;;53.40;28.53;;;;;;;;;;4448415;32;20185;-57
2021/12/19 14:29:21;;;;;;;58.93;30.10;;;;;;;;;;4452952;32;20239;-57
2021/12/19 14:31:52;;;;;;;59.47;31.37;;;;;;;;;;4464201;32;20200;-57
2021/12/19 14:34:23;;;;;;;52.67;26.37;;;;;;;;;;4460266;32;20390;-57
2021/12/19 14:36:49;;;;;;;87.47;45.43;;;;;;;;;;4462534;32;20283;-57
2021/12/19 14:39:20;;;;;;;136.57;67.80;;;;;;;;;;4463316;32;20286;-56
2021/12/19 14:41:46;;;;;;;156.87;70.67;;;;;;;;;;4462787;32;20714;-57
2021/12/19 14:44:20;;;;;;;161.30;75.53;;;;;;;;;;4462921;32;20367;-59
2021/12/19 14:46:45;;;;;;;160.60;78.40;;;;;;;;;;4462339;32;20353;-57
2021/12/19 14:49:11;;;;;;;144.00;73.60;;;;;;;;;;4461460;32;20232;-58
2021/12/19 14:51:37;;;;;;;125.63;66.53;;;;;;;;;;4451941;32;20240;-57
2021/12/19 14:54:03;;;;;;;122.27;60.97;;;;;;;;;;4449667;32;20761;-57
2021/12/19 14:56:29;;;;;;;122.73;59.93;;;;;;;;;;4462927;32;20321;-57
2021/12/19 14:59:00;;;;;;;136.43;62.97;;;;;;;;;;4464104;32;20236;-57
2021/12/19 15:01:27;;;;;;;141.60;64.03;;;;;;;;;;4465210;32;20237;-57
2021/12/19 15:04:14;;;;;;;103.63;57.17;;;;;;;;;;4465728;32;20282;-56
2021/12/19 15:06:46;;;;;;;72.67;35.10;;;;;;;;;;4455984;32;20703;-58
2021/12/19 15:09:14;;;;;;;81.47;40.53;;;;;;;;;;4462633;32;20680;-57
2021/12/19 15:11:41;;;;;;;96.77;40.83;;;;;;;;;;4452314;32;20299;-58
2021/12/19 15:14:08;;;;;;;106.40;43.33;;;;;;;;;;4462602;32;20291;-57
2021/12/19 15:16:34;;;;;;;142.53;58.83;;;;;;;;;;4465273;32;20277;-57
2021/12/19 15:19:05;;;;;;;86.67;43.13;;;;;;;;;;4465449;32;20224;-56
2021/12/19 15:21:31;;;;;;;70.83;35.50;;;;;;;;;;4463027;32;20638;-58
2021/12/19 15:23:57;;;;;;;77.27;35.00;;;;;;;;;;4462413;32;20235;-56
2021/12/19 15:26:23;;;;;;;77.13;37.50;;;;;;;;;;4462236;32;20572;-60
2021/12/19 15:28:51;;;;;;;68.33;35.00;;;;;;;;;;4460649;32;20741;-58
2021/12/19 15:31:20;;;;;;;87.83;41.57;;;;;;;;;;4462353;32;20228;-58
2021/12/19 15:33:48;;;;;;;76.53;39.10;;;;;;;;;;4462505;32;20672;-59
2021/12/19 15:36:14;;;;;;;81.23;41.03;;;;;;;;;;4461706;32;20212;-59
2021/12/19 15:38:40;;;;;;;69.60;36.50;;;;;;;;;;4461509;32;20711;-60
2021/12/19 15:41:07;;;;;;;90.30;46.80;;;;;;;;;;4461886;32;20223;-59